sensor_id;sensor_type;location;lat;lon;timestamp;temperature;humidity
19878;DHT22;10101;52.204;9.910;2023-07-30T00:01:04;16.60;68.40
19878;DHT22;10101;52.204;9.910;2023-07-30T00:03:33;16.60;96.20
19878;DHT22;10101;52.204;9.910;2023-07-30T00:06:01;16.50;99.90
19878;DHT22;10101;52.204;9.910;2023-07-30T00:08:33;16.50;99.90
19878;DHT22;10101;52.204;9.910;2023-07-30T00:11:01;16.50;99.90
19878;DHT22;10101;52.204;9.910;2023-07-30T00:13:30;16.50;99.90
19878;DHT22;10101;52.204;9.910;2023-07-30T00:15:58;16.50;99.90
19878;DHT22;10101;52.204;9.910;2023-07-30T00:18:29;16.40;99.90
19878;DHT22;10101;52.204;9.910;2023-07-30T00:21:00;16.30;99.90
19878;DHT22;10101;52.204;9.910;2023-07-30T00:23:27;16.30;99.90
19878;DHT22;10101;52.204;9.910;2023-07-30T00:26:02;16.20;99.90
19878;DHT22;10101;52.204;9.910;2023-07-30T00:28:29;16.10;99.90
19878;DHT22;10101;52.204;9.910;2023-07-30T00:31:04;16.10;99.90
19878;DHT22;10101;52.204;9.910;2023-07-30T00:33:37;16.00;99.90
19878;DHT22;10101;52.204;9.910;2023-07-30T00:36:12;16.00;99.90
19878;DHT22;10101;52.204;9.910;2023-07-30T00:38:41;16.00;1.00
19878;DHT22;10101;52.204;9.910;2023-07-30T00:41:11;15.90;1.00
19878;DHT22;10101;52.204;9.910;2023-07-30T00:43:38;15.90;1.00
19878;DHT22;10101;52.204;9.910;2023-07-30T00:46:09;15.90;1.00
19878;DHT22;10101;52.204;9.910;2023-07-30T00:48:37;16.00;1.00
19878;DHT22;10101;52.204;9.910;2023-07-30T00:51:05;16.00;1.00
19878;DHT22;10101;52.204;9.910;2023-07-30T00:53:35;16.10;1.00
19878;DHT22;10101;52.204;9.910;2023-07-30T00:56:05;16.20;1.00
19878;DHT22;10101;52.204;9.910;2023-07-30T00:58:36;16.40;1.00
19878;DHT22;10101;52.204;9.910;2023-07-30T01:01:08;16.50;1.00
19878;DHT22;10101;52.204;9.910;2023-07-30T01:03:44;16.50;1.00
19878;DHT22;10101;52.204;9.910;2023-07-30T01:06:17;16.50;1.00
19878;DHT22;10101;52.204;9.910;2023-07-30T01:08:49;16.70;1.00
19878;DHT22;10101;52.204;9.910;2023-07-30T01:11:18;17.00;1.00
19878;DHT22;10101;52.204;9.910;2023-07-30T01:13:46;17.20;1.00
19878;DHT22;10101;52.204;9.910;2023-07-30T01:16:15;17.20;1.00
19878;DHT22;10101;52.204;9.910;2023-07-30T01:18:47;17.30;1.00
19878;DHT22;10101;52.204;9.910;2023-07-30T01:21:24;17.30;1.00
19878;DHT22;10101;52.204;9.910;2023-07-30T01:23:51;17.40;99.90
19878;DHT22;10101;52.204;9.910;2023-07-30T01:26:22;17.40;99.90
19878;DHT22;10101;52.204;9.910;2023-07-30T01:28:56;17.40;99.90
19878;DHT22;10101;52.204;9.910;2023-07-30T01:31:31;17.40;99.90
19878;DHT22;10101;52.204;9.910;2023-07-30T01:34:05;17.30;99.90
19878;DHT22;10101;52.204;9.910;2023-07-30T01:36:35;17.40;99.90
19878;DHT22;10101;52.204;9.910;2023-07-30T01:39:09;17.50;99.90
19878;DHT22;10101;52.204;9.910;2023-07-30T01:41:36;17.50;99.90
19878;DHT22;10101;52.204;9.910;2023-07-30T01:44:05;17.50;99.90
19878;DHT22;10101;52.204;9.910;2023-07-30T01:46:36;17.50;99.90
19878;DHT22;10101;52.204;9.910;2023-07-30T01:49:05;17.50;99.90
19878;DHT22;10101;52.204;9.910;2023-07-30T01:51:36;17.60;99.90
19878;DHT22;10101;52.204;9.910;2023-07-30T01:54:08;17.60;99.90
19878;DHT22;10101;52.204;9.910;2023-07-30T01:56:35;17.50;99.90
19878;DHT22;10101;52.204;9.910;2023-07-30T01:59:06;17.50;99.90
19878;DHT22;10101;52.204;9.910;2023-07-30T02:01:38;17.40;99.90
19878;DHT22;10101;52.204;9.910;2023-07-30T02:04:14;17.30;99.90
19878;DHT22;10101;52.204;9.910;2023-07-30T02:06:48;17.20;99.90
19878;DHT22;10101;52.204;9.910;2023-07-30T02:09:29;17.20;99.90
19878;DHT22;10101;52.204;9.910;2023-07-30T02:11:57;17.10;99.90
19878;DHT22;10101;52.204;9.910;2023-07-30T02:14:27;17.00;99.90
19878;DHT22;10101;52.204;9.910;2023-07-30T02:16:54;16.80;99.90
19878;DHT22;10101;52.204;9.910;2023-07-30T02:19:22;16.70;99.90
19878;DHT22;10101;52.204;9.910;2023-07-30T02:27:47;16.50;99.90
19878;DHT22;10101;52.204;9.910;2023-07-30T02:30:14;16.40;99.90
19878;DHT22;10101;52.204;9.910;2023-07-30T02:32:41;16.40;99.90
19878;DHT22;10101;52.204;9.910;2023-07-30T02:35:08;16.40;99.90
19878;DHT22;10101;52.204;9.910;2023-07-30T02:37:35;16.40;99.90
19878;DHT22;10101;52.204;9.910;2023-07-30T02:40:02;16.40;99.90
19878;DHT22;10101;52.204;9.910;2023-07-30T02:42:30;16.40;99.90
19878;DHT22;10101;52.204;9.910;2023-07-30T02:44:58;16.30;99.90
19878;DHT22;10101;52.204;9.910;2023-07-30T02:47:25;16.30;99.90
19878;DHT22;10101;52.204;9.910;2023-07-30T02:49:51;16.20;99.90
19878;DHT22;10101;52.204;9.910;2023-07-30T02:52:18;16.20;99.90
19878;DHT22;10101;52.204;9.910;2023-07-30T02:54:45;16.10;99.90
19878;DHT22;10101;52.204;9.910;2023-07-30T02:57:11;16.10;99.90
19878;DHT22;10101;52.204;9.910;2023-07-30T02:59:38;16.20;99.90
19878;DHT22;10101;52.204;9.910;2023-07-30T03:02:07;16.20;99.90
19878;DHT22;10101;52.204;9.910;2023-07-30T03:04:35;16.10;99.90
19878;DHT22;10101;52.204;9.910;2023-07-30T03:07:02;16.20;99.90
19878;DHT22;10101;52.204;9.910;2023-07-30T03:09:29;16.20;99.90
19878;DHT22;10101;52.204;9.910;2023-07-30T03:11:56;16.20;99.90
19878;DHT22;10101;52.204;9.910;2023-07-30T03:14:22;16.30;99.90
19878;DHT22;10101;52.204;9.910;2023-07-30T03:16:49;16.20;99.90
19878;DHT22;10101;52.204;9.910;2023-07-30T03:19:17;16.20;99.90
19878;DHT22;10101;52.204;9.910;2023-07-30T03:21:44;16.10;99.90
19878;DHT22;10101;52.204;9.910;2023-07-30T03:24:11;16.00;99.90
19878;DHT22;10101;52.204;9.910;2023-07-30T03:26:37;15.90;99.90
19878;DHT22;10101;52.204;9.910;2023-07-30T03:29:04;15.90;99.90
19878;DHT22;10101;52.204;9.910;2023-07-30T03:31:31;15.90;99.90
19878;DHT22;10101;52.204;9.910;2023-07-30T03:33:58;15.90;99.90
19878;DHT22;10101;52.204;9.910;2023-07-30T03:36:26;15.90;99.90
19878;DHT22;10101;52.204;9.910;2023-07-30T03:38:53;15.80;99.90
19878;DHT22;10101;52.204;9.910;2023-07-30T03:41:19;15.90;99.90
19878;DHT22;10101;52.204;9.910;2023-07-30T03:43:47;15.80;99.90
19878;DHT22;10101;52.204;9.910;2023-07-30T03:46:14;15.80;99.90
19878;DHT22;10101;52.204;9.910;2023-07-30T03:48:41;15.70;99.90
19878;DHT22;10101;52.204;9.910;2023-07-30T03:51:07;15.60;99.90
19878;DHT22;10101;52.204;9.910;2023-07-30T03:53:36;15.50;99.90
19878;DHT22;10101;52.204;9.910;2023-07-30T03:56:02;15.60;99.90
19878;DHT22;10101;52.204;9.910;2023-07-30T03:58:29;15.60;99.90
19878;DHT22;10101;52.204;9.910;2023-07-30T04:00:56;15.60;99.90
19878;DHT22;10101;52.204;9.910;2023-07-30T04:03:23;15.70;99.90
19878;DHT22;10101;52.204;9.910;2023-07-30T04:05:50;15.80;1.00
19878;DHT22;10101;52.204;9.910;2023-07-30T04:08:17;15.90;1.00
19878;DHT22;10101;52.204;9.910;2023-07-30T04:10:45;15.90;99.90
19878;DHT22;10101;52.204;9.910;2023-07-30T04:13:11;15.90;99.90
19878;DHT22;10101;52.204;9.910;2023-07-30T04:15:38;15.90;99.90
19878;DHT22;10101;52.204;9.910;2023-07-30T04:18:05;15.90;99.90
19878;DHT22;10101;52.204;9.910;2023-07-30T04:20:31;15.90;99.90
19878;DHT22;10101;52.204;9.910;2023-07-30T04:22:58;15.90;99.90
19878;DHT22;10101;52.204;9.910;2023-07-30T04:25:25;15.90;99.90
19878;DHT22;10101;52.204;9.910;2023-07-30T04:27:53;15.80;99.90
19878;DHT22;10101;52.204;9.910;2023-07-30T04:30:20;15.80;99.90
19878;DHT22;10101;52.204;9.910;2023-07-30T04:32:46;15.80;99.90
19878;DHT22;10101;52.204;9.910;2023-07-30T04:35:13;15.90;99.90
19878;DHT22;10101;52.204;9.910;2023-07-30T04:37:40;15.90;99.90
19878;DHT22;10101;52.204;9.910;2023-07-30T04:40:08;15.90;99.90
19878;DHT22;10101;52.204;9.910;2023-07-30T04:42:34;16.10;99.90
19878;DHT22;10101;52.204;9.910;2023-07-30T04:45:03;16.10;99.90
19878;DHT22;10101;52.204;9.910;2023-07-30T04:47:30;16.20;99.90
19878;DHT22;10101;52.204;9.910;2023-07-30T04:49:57;16.30;99.90
19878;DHT22;10101;52.204;9.910;2023-07-30T04:52:23;16.30;99.90
19878;DHT22;10101;52.204;9.910;2023-07-30T04:54:50;16.40;99.90
19878;DHT22;10101;52.204;9.910;2023-07-30T04:57:17;16.50;99.90
19878;DHT22;10101;52.204;9.910;2023-07-30T04:59:47;16.50;99.90
19878;DHT22;10101;52.204;9.910;2023-07-30T05:02:15;16.60;99.90
19878;DHT22;10101;52.204;9.910;2023-07-30T05:04:42;16.70;99.90
19878;DHT22;10101;52.204;9.910;2023-07-30T05:07:09;16.70;99.90
19878;DHT22;10101;52.204;9.910;2023-07-30T05:09:36;16.70;99.90
19878;DHT22;10101;52.204;9.910;2023-07-30T05:12:04;16.80;99.90
19878;DHT22;10101;52.204;9.910;2023-07-30T05:14:30;16.80;99.90
19878;DHT22;10101;52.204;9.910;2023-07-30T05:16:57;16.90;99.90
19878;DHT22;10101;52.204;9.910;2023-07-30T05:19:25;17.00;99.90
19878;DHT22;10101;52.204;9.910;2023-07-30T05:21:52;17.00;99.90
19878;DHT22;10101;52.204;9.910;2023-07-30T05:24:19;17.10;99.90
19878;DHT22;10101;52.204;9.910;2023-07-30T05:26:46;17.10;99.90
19878;DHT22;10101;52.204;9.910;2023-07-30T05:29:12;17.10;99.90
19878;DHT22;10101;52.204;9.910;2023-07-30T05:31:39;17.10;99.90
19878;DHT22;10101;52.204;9.910;2023-07-30T05:34:06;17.10;99.90
19878;DHT22;10101;52.204;9.910;2023-07-30T05:36:34;17.10;99.90
19878;DHT22;10101;52.204;9.910;2023-07-30T05:39:01;17.10;99.90
19878;DHT22;10101;52.204;9.910;2023-07-30T05:41:28;17.20;99.90
19878;DHT22;10101;52.204;9.910;2023-07-30T05:43:55;17.20;99.90
19878;DHT22;10101;52.204;9.910;2023-07-30T05:46:21;17.30;99.90
19878;DHT22;10101;52.204;9.910;2023-07-30T05:48:48;17.40;99.90
19878;DHT22;10101;52.204;9.910;2023-07-30T05:51:15;17.40;99.90
19878;DHT22;10101;52.204;9.910;2023-07-30T05:53:44;17.50;94.50
19878;DHT22;10101;52.204;9.910;2023-07-30T05:56:10;17.50;79.60
19878;DHT22;10101;52.204;9.910;2023-07-30T05:58:38;17.60;44.70
19878;DHT22;10101;52.204;9.910;2023-07-30T06:01:05;17.60;21.50
19878;DHT22;10101;52.204;9.910;2023-07-30T06:03:33;17.80;1.00
19878;DHT22;10101;52.204;9.910;2023-07-30T06:06:01;17.80;1.00
19878;DHT22;10101;52.204;9.910;2023-07-30T06:08:28;17.80;1.00
19878;DHT22;10101;52.204;9.910;2023-07-30T06:11:00;17.90;1.00
19878;DHT22;10101;52.204;9.910;2023-07-30T06:13:27;18.00;1.00
19878;DHT22;10101;52.204;9.910;2023-07-30T06:15:54;18.00;1.00
19878;DHT22;10101;52.204;9.910;2023-07-30T06:18:21;18.00;1.00
19878;DHT22;10101;52.204;9.910;2023-07-30T06:20:48;18.10;1.00
19878;DHT22;10101;52.204;9.910;2023-07-30T06:23:14;18.10;1.00
19878;DHT22;10101;52.204;9.910;2023-07-30T06:25:41;18.20;1.00
19878;DHT22;10101;52.204;9.910;2023-07-30T06:28:09;18.20;1.00
19878;DHT22;10101;52.204;9.910;2023-07-30T06:30:36;18.20;1.00
19878;DHT22;10101;52.204;9.910;2023-07-30T06:33:04;18.20;1.00
19878;DHT22;10101;52.204;9.910;2023-07-30T06:35:31;18.20;1.00
19878;DHT22;10101;52.204;9.910;2023-07-30T06:37:58;18.30;1.00
19878;DHT22;10101;52.204;9.910;2023-07-30T06:40:24;18.40;1.00
19878;DHT22;10101;52.204;9.910;2023-07-30T06:42:51;18.50;1.00
19878;DHT22;10101;52.204;9.910;2023-07-30T06:45:19;18.50;1.00
19878;DHT22;10101;52.204;9.910;2023-07-30T06:47:46;18.60;1.00
19878;DHT22;10101;52.204;9.910;2023-07-30T06:50:13;18.60;1.00
19878;DHT22;10101;52.204;9.910;2023-07-30T06:52:40;18.70;1.00
19878;DHT22;10101;52.204;9.910;2023-07-30T06:55:07;18.70;1.00
19878;DHT22;10101;52.204;9.910;2023-07-30T06:57:34;18.90;1.00
19878;DHT22;10101;52.204;9.910;2023-07-30T07:00:01;18.90;1.00
19878;DHT22;10101;52.204;9.910;2023-07-30T07:02:30;18.80;1.00
19878;DHT22;10101;52.204;9.910;2023-07-30T07:04:58;18.90;1.00
19878;DHT22;10101;52.204;9.910;2023-07-30T07:07:25;18.70;1.00
19878;DHT22;10101;52.204;9.910;2023-07-30T07:09:51;18.70;1.00
19878;DHT22;10101;52.204;9.910;2023-07-30T07:12:18;18.90;1.00
19878;DHT22;10101;52.204;9.910;2023-07-30T07:14:45;18.90;1.00
19878;DHT22;10101;52.204;9.910;2023-07-30T07:17:12;18.90;1.00
19878;DHT22;10101;52.204;9.910;2023-07-30T07:19:40;19.00;1.00
19878;DHT22;10101;52.204;9.910;2023-07-30T07:22:06;19.10;1.00
19878;DHT22;10101;52.204;9.910;2023-07-30T07:24:33;19.10;1.00
19878;DHT22;10101;52.204;9.910;2023-07-30T07:27:00;19.00;1.00
19878;DHT22;10101;52.204;9.910;2023-07-30T07:29:27;19.00;99.90
19878;DHT22;10101;52.204;9.910;2023-07-30T07:31:54;19.10;99.90
19878;DHT22;10101;52.204;9.910;2023-07-30T07:34:21;19.10;99.90
19878;DHT22;10101;52.204;9.910;2023-07-30T07:36:49;19.10;99.90
19878;DHT22;10101;52.204;9.910;2023-07-30T07:39:15;19.00;99.90
19878;DHT22;10101;52.204;9.910;2023-07-30T07:41:43;19.10;99.90
19878;DHT22;10101;52.204;9.910;2023-07-30T07:44:10;19.20;99.90
19878;DHT22;10101;52.204;9.910;2023-07-30T07:46:37;19.30;99.90
19878;DHT22;10101;52.204;9.910;2023-07-30T07:49:04;19.30;99.90
19878;DHT22;10101;52.204;9.910;2023-07-30T07:51:31;19.40;99.90
19878;DHT22;10101;52.204;9.910;2023-07-30T07:54:00;19.40;99.90
19878;DHT22;10101;52.204;9.910;2023-07-30T07:56:26;19.30;99.90
19878;DHT22;10101;52.204;9.910;2023-07-30T07:58:53;19.40;99.90
19878;DHT22;10101;52.204;9.910;2023-07-30T08:01:20;19.60;99.90
19878;DHT22;10101;52.204;9.910;2023-07-30T08:03:47;19.60;99.90
19878;DHT22;10101;52.204;9.910;2023-07-30T08:06:13;19.80;99.90
19878;DHT22;10101;52.204;9.910;2023-07-30T08:08:40;20.30;99.90
19878;DHT22;10101;52.204;9.910;2023-07-30T08:11:09;20.50;99.90
19878;DHT22;10101;52.204;9.910;2023-07-30T08:13:36;20.70;99.90
19878;DHT22;10101;52.204;9.910;2023-07-30T08:16:03;20.40;99.90
19878;DHT22;10101;52.204;9.910;2023-07-30T08:18:29;20.60;99.90
19878;DHT22;10101;52.204;9.910;2023-07-30T08:20:56;21.50;99.90
19878;DHT22;10101;52.204;9.910;2023-07-30T08:23:23;20.80;99.90
19878;DHT22;10101;52.204;9.910;2023-07-30T08:25:50;20.50;99.90
19878;DHT22;10101;52.204;9.910;2023-07-30T08:28:18;20.90;99.90
19878;DHT22;10101;52.204;9.910;2023-07-30T08:30:45;20.60;99.90
19878;DHT22;10101;52.204;9.910;2023-07-30T08:33:12;20.70;99.90
19878;DHT22;10101;52.204;9.910;2023-07-30T08:35:39;20.50;99.90
19878;DHT22;10101;52.204;9.910;2023-07-30T08:38:06;20.40;99.90
19878;DHT22;10101;52.204;9.910;2023-07-30T08:40:33;20.20;99.90
19878;DHT22;10101;52.204;9.910;2023-07-30T08:42:59;20.00;99.90
19878;DHT22;10101;52.204;9.910;2023-07-30T08:45:29;20.10;99.90
19878;DHT22;10101;52.204;9.910;2023-07-30T08:47:55;20.10;99.90
19878;DHT22;10101;52.204;9.910;2023-07-30T08:50:22;20.00;99.90
19878;DHT22;10101;52.204;9.910;2023-07-30T08:52:50;20.30;99.90
19878;DHT22;10101;52.204;9.910;2023-07-30T08:55:17;20.20;99.90
19878;DHT22;10101;52.204;9.910;2023-07-30T08:57:45;20.50;99.90
19878;DHT22;10101;52.204;9.910;2023-07-30T09:00:15;20.70;99.90
19878;DHT22;10101;52.204;9.910;2023-07-30T09:02:48;20.90;99.90
19878;DHT22;10101;52.204;9.910;2023-07-30T09:05:16;20.80;99.90
19878;DHT22;10101;52.204;9.910;2023-07-30T09:07:43;20.70;99.90
19878;DHT22;10101;52.204;9.910;2023-07-30T09:10:09;20.70;99.90
19878;DHT22;10101;52.204;9.910;2023-07-30T09:12:36;21.10;99.90
19878;DHT22;10101;52.204;9.910;2023-07-30T09:15:05;21.00;99.90
19878;DHT22;10101;52.204;9.910;2023-07-30T09:17:32;20.80;99.90
19878;DHT22;10101;52.204;9.910;2023-07-30T09:20:01;20.80;99.90
19878;DHT22;10101;52.204;9.910;2023-07-30T09:22:29;21.00;99.90
19878;DHT22;10101;52.204;9.910;2023-07-30T09:25:01;20.80;99.90
19878;DHT22;10101;52.204;9.910;2023-07-30T09:27:29;20.90;99.90
19878;DHT22;10101;52.204;9.910;2023-07-30T09:29:57;20.90;99.90
19878;DHT22;10101;52.204;9.910;2023-07-30T09:32:26;20.60;99.90
19878;DHT22;10101;52.204;9.910;2023-07-30T09:34:53;20.70;99.90
19878;DHT22;10101;52.204;9.910;2023-07-30T09:37:21;20.50;99.90
19878;DHT22;10101;52.204;9.910;2023-07-30T09:39:48;20.40;99.90
19878;DHT22;10101;52.204;9.910;2023-07-30T09:42:15;20.50;99.90
19878;DHT22;10101;52.204;9.910;2023-07-30T09:44:42;21.00;99.90
19878;DHT22;10101;52.204;9.910;2023-07-30T09:47:09;20.70;99.90
19878;DHT22;10101;52.204;9.910;2023-07-30T09:49:36;20.60;99.90
19878;DHT22;10101;52.204;9.910;2023-07-30T09:52:04;20.70;99.90
19878;DHT22;10101;52.204;9.910;2023-07-30T09:54:33;20.70;99.90
19878;DHT22;10101;52.204;9.910;2023-07-30T09:57:01;20.80;99.90
19878;DHT22;10101;52.204;9.910;2023-07-30T09:59:29;20.70;99.90
19878;DHT22;10101;52.204;9.910;2023-07-30T10:01:57;20.40;99.90
19878;DHT22;10101;52.204;9.910;2023-07-30T10:04:24;20.20;99.90
19878;DHT22;10101;52.204;9.910;2023-07-30T10:06:56;20.10;99.90
19878;DHT22;10101;52.204;9.910;2023-07-30T10:09:28;19.90;99.90
19878;DHT22;10101;52.204;9.910;2023-07-30T10:11:58;19.80;99.90
19878;DHT22;10101;52.204;9.910;2023-07-30T10:14:27;20.00;99.90
19878;DHT22;10101;52.204;9.910;2023-07-30T10:16:56;19.80;99.90
19878;DHT22;10101;52.204;9.910;2023-07-30T10:19:25;19.80;99.90
19878;DHT22;10101;52.204;9.910;2023-07-30T10:21:54;19.70;99.90
19878;DHT22;10101;52.204;9.910;2023-07-30T10:24:25;19.50;99.90
19878;DHT22;10101;52.204;9.910;2023-07-30T10:26:53;19.50;99.90
19878;DHT22;10101;52.204;9.910;2023-07-30T10:29:24;19.50;99.90
19878;DHT22;10101;52.204;9.910;2023-07-30T10:31:53;19.30;99.90
19878;DHT22;10101;52.204;9.910;2023-07-30T10:34:20;19.40;99.90
19878;DHT22;10101;52.204;9.910;2023-07-30T10:36:49;19.50;99.90
19878;DHT22;10101;52.204;9.910;2023-07-30T10:39:17;19.50;99.90
19878;DHT22;10101;52.204;9.910;2023-07-30T10:41:45;19.30;99.90
19878;DHT22;10101;52.204;9.910;2023-07-30T10:44:26;19.40;99.90
19878;DHT22;10101;52.204;9.910;2023-07-30T10:46:54;19.30;99.90
19878;DHT22;10101;52.204;9.910;2023-07-30T10:49:21;19.20;99.90
19878;DHT22;10101;52.204;9.910;2023-07-30T10:51:50;19.20;99.90
19878;DHT22;10101;52.204;9.910;2023-07-30T10:54:17;19.10;99.90
19878;DHT22;10101;52.204;9.910;2023-07-30T10:56:44;19.10;99.90
19878;DHT22;10101;52.204;9.910;2023-07-30T10:59:12;19.00;99.90
19878;DHT22;10101;52.204;9.910;2023-07-30T11:01:41;19.00;99.90
19878;DHT22;10101;52.204;9.910;2023-07-30T11:04:09;19.00;99.90
19878;DHT22;10101;52.204;9.910;2023-07-30T11:06:37;19.20;99.90
19878;DHT22;10101;52.204;9.910;2023-07-30T11:09:04;19.20;99.90
19878;DHT22;10101;52.204;9.910;2023-07-30T11:11:31;19.40;99.90
19878;DHT22;10101;52.204;9.910;2023-07-30T11:13:58;19.30;99.90
19878;DHT22;10101;52.204;9.910;2023-07-30T11:16:25;19.10;99.90
19878;DHT22;10101;52.204;9.910;2023-07-30T11:18:53;19.30;99.90
19878;DHT22;10101;52.204;9.910;2023-07-30T11:21:20;19.30;99.90
19878;DHT22;10101;52.204;9.910;2023-07-30T11:23:47;19.50;99.90
19878;DHT22;10101;52.204;9.910;2023-07-30T11:26:15;19.50;99.90
19878;DHT22;10101;52.204;9.910;2023-07-30T11:28:43;19.40;99.90
19878;DHT22;10101;52.204;9.910;2023-07-30T11:31:11;19.50;99.90
19878;DHT22;10101;52.204;9.910;2023-07-30T11:33:40;19.50;99.90
19878;DHT22;10101;52.204;9.910;2023-07-30T11:36:10;19.70;99.90
19878;DHT22;10101;52.204;9.910;2023-07-30T11:38:39;19.50;99.90
19878;DHT22;10101;52.204;9.910;2023-07-30T11:41:06;19.50;99.90
19878;DHT22;10101;52.204;9.910;2023-07-30T11:43:36;19.60;99.90
19878;DHT22;10101;52.204;9.910;2023-07-30T11:46:08;19.60;99.90
19878;DHT22;10101;52.204;9.910;2023-07-30T11:48:34;19.60;99.90
19878;DHT22;10101;52.204;9.910;2023-07-30T11:51:02;19.60;99.90
19878;DHT22;10101;52.204;9.910;2023-07-30T11:56:23;19.80;99.90
19878;DHT22;10101;52.204;9.910;2023-07-30T11:58:51;20.30;99.90
19878;DHT22;10101;52.204;9.910;2023-07-30T12:01:18;20.30;99.90
19878;DHT22;10101;52.204;9.910;2023-07-30T12:03:45;20.30;99.90
19878;DHT22;10101;52.204;9.910;2023-07-30T12:06:12;20.10;99.90
19878;DHT22;10101;52.204;9.910;2023-07-30T12:08:39;20.20;99.90
19878;DHT22;10101;52.204;9.910;2023-07-30T12:11:07;20.10;99.90
19878;DHT22;10101;52.204;9.910;2023-07-30T12:13:42;20.30;99.90
19878;DHT22;10101;52.204;9.910;2023-07-30T12:16:09;20.50;99.90
19878;DHT22;10101;52.204;9.910;2023-07-30T12:18:37;20.80;99.90
19878;DHT22;10101;52.204;9.910;2023-07-30T12:21:05;20.80;99.90
19878;DHT22;10101;52.204;9.910;2023-07-30T12:23:33;20.50;99.90
19878;DHT22;10101;52.204;9.910;2023-07-30T12:26:00;20.50;99.90
19878;DHT22;10101;52.204;9.910;2023-07-30T12:28:30;20.40;99.90
19878;DHT22;10101;52.204;9.910;2023-07-30T12:30:58;20.20;99.90
19878;DHT22;10101;52.204;9.910;2023-07-30T12:33:25;20.40;99.90
19878;DHT22;10101;52.204;9.910;2023-07-30T12:35:52;20.50;99.90
19878;DHT22;10101;52.204;9.910;2023-07-30T12:38:19;20.80;99.90
19878;DHT22;10101;52.204;9.910;2023-07-30T12:40:46;20.70;99.90
19878;DHT22;10101;52.204;9.910;2023-07-30T12:43:13;21.10;99.90
19878;DHT22;10101;52.204;9.910;2023-07-30T12:45:40;21.50;99.90
19878;DHT22;10101;52.204;9.910;2023-07-30T12:48:08;21.40;99.90
19878;DHT22;10101;52.204;9.910;2023-07-30T12:50:35;21.30;99.90
19878;DHT22;10101;52.204;9.910;2023-07-30T12:53:01;21.40;99.90
19878;DHT22;10101;52.204;9.910;2023-07-30T12:55:28;21.50;99.90
19878;DHT22;10101;52.204;9.910;2023-07-30T12:57:55;21.40;99.90
19878;DHT22;10101;52.204;9.910;2023-07-30T13:00:22;21.70;99.90
19878;DHT22;10101;52.204;9.910;2023-07-30T13:02:49;21.50;96.70
19878;DHT22;10101;52.204;9.910;2023-07-30T13:05:19;21.30;83.70
19878;DHT22;10101;52.204;9.910;2023-07-30T13:07:45;21.60;99.70
19878;DHT22;10101;52.204;9.910;2023-07-30T13:10:12;21.40;98.50
19878;DHT22;10101;52.204;9.910;2023-07-30T13:12:39;21.40;92.90
19878;DHT22;10101;52.204;9.910;2023-07-30T13:15:06;21.30;59.70
19878;DHT22;10101;52.204;9.910;2023-07-30T13:17:34;21.30;62.10
19878;DHT22;10101;52.204;9.910;2023-07-30T13:20:01;21.20;66.80
19878;DHT22;10101;52.204;9.910;2023-07-30T13:22:29;21.50;64.30
19878;DHT22;10101;52.204;9.910;2023-07-30T13:24:56;21.90;65.50
19878;DHT22;10101;52.204;9.910;2023-07-30T13:27:23;21.90;50.90
19878;DHT22;10101;52.204;9.910;2023-07-30T13:29:49;22.30;59.40
19878;DHT22;10101;52.204;9.910;2023-07-30T13:32:16;22.50;21.30
19878;DHT22;10101;52.204;9.910;2023-07-30T13:34:43;22.20;1.00
19878;DHT22;10101;52.204;9.910;2023-07-30T13:37:10;22.00;1.00
19878;DHT22;10101;52.204;9.910;2023-07-30T13:39:39;22.30;1.00
19878;DHT22;10101;52.204;9.910;2023-07-30T13:42:05;22.80;1.00
19878;DHT22;10101;52.204;9.910;2023-07-30T13:44:32;22.50;1.00
19878;DHT22;10101;52.204;9.910;2023-07-30T13:46:59;22.90;1.00
19878;DHT22;10101;52.204;9.910;2023-07-30T13:49:26;23.30;1.00
19878;DHT22;10101;52.204;9.910;2023-07-30T13:51:52;22.80;1.00
19878;DHT22;10101;52.204;9.910;2023-07-30T13:54:19;22.80;1.00
19878;DHT22;10101;52.204;9.910;2023-07-30T13:56:47;23.30;1.00
19878;DHT22;10101;52.204;9.910;2023-07-30T13:59:14;23.10;1.00
19878;DHT22;10101;52.204;9.910;2023-07-30T14:01:41;22.60;1.00
19878;DHT22;10101;52.204;9.910;2023-07-30T14:04:07;23.20;1.00
19878;DHT22;10101;52.204;9.910;2023-07-30T14:06:34;22.30;1.00
19878;DHT22;10101;52.204;9.910;2023-07-30T14:09:02;21.80;1.00
19878;DHT22;10101;52.204;9.910;2023-07-30T14:11:30;21.80;1.00
19878;DHT22;10101;52.204;9.910;2023-07-30T14:13:58;22.10;1.00
19878;DHT22;10101;52.204;9.910;2023-07-30T14:16:25;23.00;1.00
19878;DHT22;10101;52.204;9.910;2023-07-30T14:18:51;23.30;1.00
19878;DHT22;10101;52.204;9.910;2023-07-30T14:21:18;22.60;1.00
19878;DHT22;10101;52.204;9.910;2023-07-30T14:23:45;23.00;1.00
19878;DHT22;10101;52.204;9.910;2023-07-30T14:26:12;22.90;1.00
19878;DHT22;10101;52.204;9.910;2023-07-30T14:28:38;21.90;1.00
19878;DHT22;10101;52.204;9.910;2023-07-30T14:31:07;22.40;1.00
19878;DHT22;10101;52.204;9.910;2023-07-30T14:33:33;22.30;1.00
19878;DHT22;10101;52.204;9.910;2023-07-30T14:36:00;22.00;1.00
19878;DHT22;10101;52.204;9.910;2023-07-30T14:38:28;21.70;1.00
19878;DHT22;10101;52.204;9.910;2023-07-30T14:40:56;21.60;1.00
19878;DHT22;10101;52.204;9.910;2023-07-30T14:43:23;21.50;1.00
19878;DHT22;10101;52.204;9.910;2023-07-30T14:45:50;21.60;1.00
19878;DHT22;10101;52.204;9.910;2023-07-30T14:48:18;21.60;1.00
19878;DHT22;10101;52.204;9.910;2023-07-30T14:50:45;21.40;1.00
19878;DHT22;10101;52.204;9.910;2023-07-30T14:53:12;21.30;1.00
19878;DHT22;10101;52.204;9.910;2023-07-30T14:55:39;21.20;1.00
19878;DHT22;10101;52.204;9.910;2023-07-30T14:58:05;21.00;1.00
19878;DHT22;10101;52.204;9.910;2023-07-30T15:00:34;20.90;1.00
19878;DHT22;10101;52.204;9.910;2023-07-30T15:03:01;20.60;1.00
19878;DHT22;10101;52.204;9.910;2023-07-30T15:05:32;20.50;1.00
19878;DHT22;10101;52.204;9.910;2023-07-30T15:07:59;20.40;1.00
19878;DHT22;10101;52.204;9.910;2023-07-30T15:10:26;20.20;1.00
19878;DHT22;10101;52.204;9.910;2023-07-30T15:12:53;20.10;1.00
19878;DHT22;10101;52.204;9.910;2023-07-30T15:15:20;20.00;1.00
19878;DHT22;10101;52.204;9.910;2023-07-30T15:17:46;19.80;1.00
19878;DHT22;10101;52.204;9.910;2023-07-30T15:20:13;19.70;4.40
19878;DHT22;10101;52.204;9.910;2023-07-30T15:22:41;19.70;24.80
19878;DHT22;10101;52.204;9.910;2023-07-30T15:25:08;19.30;80.70
19878;DHT22;10101;52.204;9.910;2023-07-30T15:27:35;19.30;99.90
19878;DHT22;10101;52.204;9.910;2023-07-30T15:30:02;19.20;99.90
19878;DHT22;10101;52.204;9.910;2023-07-30T15:32:30;19.30;99.90
19878;DHT22;10101;52.204;9.910;2023-07-30T15:34:58;19.80;99.90
19878;DHT22;10101;52.204;9.910;2023-07-30T15:37:25;20.10;99.90
19878;DHT22;10101;52.204;9.910;2023-07-30T15:39:53;20.80;99.90
19878;DHT22;10101;52.204;9.910;2023-07-30T15:42:20;20.70;94.20
19878;DHT22;10101;52.204;9.910;2023-07-30T15:44:47;20.80;75.30
19878;DHT22;10101;52.204;9.910;2023-07-30T15:47:13;20.80;51.70